sensor_id;sensor_type;location;lat;lon;timestamp;P1;durP1;ratioP1;P2;durP2;ratioP2
12603;SDS011;6367;52.508;13.284;2023-04-28T00:00:20;4.73;;;4.07;;
12603;SDS011;6367;52.508;13.284;2023-04-28T00:02:46;6.17;;;4.43;;
12603;SDS011;6367;52.508;13.284;2023-04-28T00:05:12;5.23;;;3.57;;
12603;SDS011;6367;52.508;13.284;2023-04-28T00:07:38;10.83;;;3.80;;
12603;SDS011;6367;52.508;13.284;2023-04-28T00:10:04;7.63;;;4.30;;
12603;SDS011;6367;52.508;13.284;2023-04-28T00:12:30;4.50;;;3.83;;
12603;SDS011;6367;52.508;13.284;2023-04-28T00:14:56;5.47;;;3.50;;
12603;SDS011;6367;52.508;13.284;2023-04-28T00:17:21;5.80;;;3.80;;
12603;SDS011;6367;52.508;13.284;2023-04-28T00:19:47;5.87;;;3.60;;
12603;SDS011;6367;52.508;13.284;2023-04-28T00:22:13;6.30;;;4.00;;
12603;SDS011;6367;52.508;13.284;2023-04-28T00:24:39;5.63;;;2.83;;
12603;SDS011;6367;52.508;13.284;2023-04-28T00:27:05;3.80;;;3.30;;
12603;SDS011;6367;52.508;13.284;2023-04-28T00:29:32;4.57;;;3.50;;
12603;SDS011;6367;52.508;13.284;2023-04-28T00:31:57;3.60;;;3.27;;
12603;SDS011;6367;52.508;13.284;2023-04-28T00:34:23;8.50;;;3.73;;
12603;SDS011;6367;52.508;13.284;2023-04-28T00:36:48;4.37;;;2.83;;
12603;SDS011;6367;52.508;13.284;2023-04-28T00:39:14;4.73;;;3.40;;
12603;SDS011;6367;52.508;13.284;2023-04-28T00:41:42;3.43;;;2.97;;
12603;SDS011;6367;52.508;13.284;2023-04-28T00:44:08;5.60;;;3.60;;
12603;SDS011;6367;52.508;13.284;2023-04-28T00:46:33;4.20;;;3.17;;
12603;SDS011;6367;52.508;13.284;2023-04-28T00:48:59;4.77;;;3.50;;
12603;SDS011;6367;52.508;13.284;2023-04-28T00:51:25;4.87;;;3.40;;
12603;SDS011;6367;52.508;13.284;2023-04-28T00:53:53;3.60;;;3.30;;
12603;SDS011;6367;52.508;13.284;2023-04-28T00:56:19;4.87;;;2.80;;
12603;SDS011;6367;52.508;13.284;2023-04-28T00:58:45;4.97;;;3.30;;
12603;SDS011;6367;52.508;13.284;2023-04-28T01:01:11;7.57;;;3.00;;
12603;SDS011;6367;52.508;13.284;2023-04-28T01:03:37;2.70;;;2.40;;
12603;SDS011;6367;52.508;13.284;2023-04-28T01:06:06;5.10;;;3.00;;
12603;SDS011;6367;52.508;13.284;2023-04-28T01:08:34;4.33;;;3.23;;
12603;SDS011;6367;52.508;13.284;2023-04-28T01:11:01;4.33;;;2.83;;
12603;SDS011;6367;52.508;13.284;2023-04-28T01:13:27;6.30;;;3.17;;
12603;SDS011;6367;52.508;13.284;2023-04-28T01:15:54;3.47;;;3.17;;
12603;SDS011;6367;52.508;13.284;2023-04-28T01:18:20;3.50;;;2.63;;
12603;SDS011;6367;52.508;13.284;2023-04-28T01:20:46;4.33;;;2.90;;
12603;SDS011;6367;52.508;13.284;2023-04-28T01:23:12;5.87;;;3.03;;
12603;SDS011;6367;52.508;13.284;2023-04-28T01:25:39;4.90;;;3.33;;
12603;SDS011;6367;52.508;13.284;2023-04-28T01:28:05;4.33;;;3.10;;
12603;SDS011;6367;52.508;13.284;2023-04-28T01:30:31;5.33;;;3.17;;
12603;SDS011;6367;52.508;13.284;2023-04-28T01:32:57;7.20;;;2.90;;
12603;SDS011;6367;52.508;13.284;2023-04-28T01:35:23;4.60;;;3.10;;
12603;SDS011;6367;52.508;13.284;2023-04-28T01:37:48;3.80;;;2.90;;
12603;SDS011;6367;52.508;13.284;2023-04-28T01:40:14;6.13;;;3.40;;
12603;SDS011;6367;52.508;13.284;2023-04-28T01:42:40;4.80;;;2.97;;
12603;SDS011;6367;52.508;13.284;2023-04-28T01:45:05;4.90;;;2.90;;
12603;SDS011;6367;52.508;13.284;2023-04-28T01:47:32;4.60;;;3.13;;
12603;SDS011;6367;52.508;13.284;2023-04-28T01:49:57;6.43;;;3.60;;
12603;SDS011;6367;52.508;13.284;2023-04-28T01:52:23;3.70;;;3.37;;
12603;SDS011;6367;52.508;13.284;2023-04-28T01:54:49;4.50;;;3.20;;
12603;SDS011;6367;52.508;13.284;2023-04-28T01:57:15;5.40;;;3.43;;
12603;SDS011;6367;52.508;13.284;2023-04-28T01:59:40;6.40;;;3.63;;
12603;SDS011;6367;52.508;13.284;2023-04-28T02:02:06;7.17;;;3.40;;
12603;SDS011;6367;52.508;13.284;2023-04-28T02:04:32;4.33;;;3.10;;
12603;SDS011;6367;52.508;13.284;2023-04-28T02:06:58;6.23;;;3.93;;
12603;SDS011;6367;52.508;13.284;2023-04-28T02:09:23;3.50;;;3.20;;
12603;SDS011;6367;52.508;13.284;2023-04-28T02:11:49;5.87;;;3.40;;
12603;SDS011;6367;52.508;13.284;2023-04-28T02:14:15;5.50;;;3.23;;
12603;SDS011;6367;52.508;13.284;2023-04-28T02:16:41;7.90;;;3.50;;
12603;SDS011;6367;52.508;13.284;2023-04-28T02:19:07;4.87;;;3.00;;
12603;SDS011;6367;52.508;13.284;2023-04-28T02:21:32;6.20;;;3.10;;
12603;SDS011;6367;52.508;13.284;2023-04-28T02:23:58;5.40;;;3.43;;
12603;SDS011;6367;52.508;13.284;2023-04-28T02:26:23;5.10;;;3.30;;
12603;SDS011;6367;52.508;13.284;2023-04-28T02:28:49;8.00;;;3.40;;
12603;SDS011;6367;52.508;13.284;2023-04-28T02:31:15;5.30;;;3.30;;
12603;SDS011;6367;52.508;13.284;2023-04-28T02:33:41;7.87;;;3.70;;
12603;SDS011;6367;52.508;13.284;2023-04-28T02:36:07;9.43;;;3.67;;
12603;SDS011;6367;52.508;13.284;2023-04-28T02:38:33;4.70;;;3.47;;
12603;SDS011;6367;52.508;13.284;2023-04-28T02:40:59;4.27;;;3.10;;
12603;SDS011;6367;52.508;13.284;2023-04-28T02:43:26;3.83;;;3.23;;
12603;SDS011;6367;52.508;13.284;2023-04-28T02:45:53;4.53;;;3.67;;
12603;SDS011;6367;52.508;13.284;2023-04-28T02:48:18;7.33;;;3.87;;
12603;SDS011;6367;52.508;13.284;2023-04-28T02:50:44;3.50;;;3.20;;
12603;SDS011;6367;52.508;13.284;2023-04-28T02:53:10;4.10;;;3.80;;
12603;SDS011;6367;52.508;13.284;2023-04-28T02:55:36;4.50;;;4.10;;
12603;SDS011;6367;52.508;13.284;2023-04-28T02:58:02;3.93;;;3.57;;
12603;SDS011;6367;52.508;13.284;2023-04-28T03:00:27;5.50;;;3.97;;
12603;SDS011;6367;52.508;13.284;2023-04-28T03:02:53;5.53;;;4.27;;
12603;SDS011;6367;52.508;13.284;2023-04-28T03:05:19;7.43;;;4.30;;
12603;SDS011;6367;52.508;13.284;2023-04-28T03:07:45;6.30;;;3.90;;
12603;SDS011;6367;52.508;13.284;2023-04-28T03:10:10;10.80;;;4.10;;
12603;SDS011;6367;52.508;13.284;2023-04-28T03:12:36;4.43;;;4.00;;
12603;SDS011;6367;52.508;13.284;2023-04-28T03:15:02;9.17;;;4.27;;
12603;SDS011;6367;52.508;13.284;2023-04-28T03:17:28;6.60;;;4.37;;
12603;SDS011;6367;52.508;13.284;2023-04-28T03:19:53;4.27;;;3.83;;
12603;SDS011;6367;52.508;13.284;2023-04-28T03:22:19;5.07;;;3.60;;
12603;SDS011;6367;52.508;13.284;2023-04-28T03:24:45;4.40;;;3.70;;
12603;SDS011;6367;52.508;13.284;2023-04-28T03:27:11;5.30;;;4.40;;
12603;SDS011;6367;52.508;13.284;2023-04-28T03:29:36;7.00;;;4.20;;
12603;SDS011;6367;52.508;13.284;2023-04-28T03:32:02;5.57;;;4.33;;
12603;SDS011;6367;52.508;13.284;2023-04-28T03:34:28;8.13;;;4.07;;
12603;SDS011;6367;52.508;13.284;2023-04-28T03:36:53;4.57;;;3.80;;
12603;SDS011;6367;52.508;13.284;2023-04-28T03:39:19;4.40;;;3.80;;
12603;SDS011;6367;52.508;13.284;2023-04-28T03:41:44;4.50;;;4.10;;
12603;SDS011;6367;52.508;13.284;2023-04-28T03:44:10;5.93;;;4.20;;
12603;SDS011;6367;52.508;13.284;2023-04-28T03:46:36;7.53;;;4.30;;
12603;SDS011;6367;52.508;13.284;2023-04-28T03:49:01;6.00;;;3.90;;
12603;SDS011;6367;52.508;13.284;2023-04-28T03:51:28;5.30;;;4.03;;
12603;SDS011;6367;52.508;13.284;2023-04-28T03:53:54;4.03;;;3.40;;
12603;SDS011;6367;52.508;13.284;2023-04-28T03:56:20;8.60;;;4.03;;
12603;SDS011;6367;52.508;13.284;2023-04-28T03:58:45;5.30;;;4.80;;
12603;SDS011;6367;52.508;13.284;2023-04-28T04:01:11;5.40;;;3.63;;
12603;SDS011;6367;52.508;13.284;2023-04-28T04:03:37;4.77;;;4.27;;
12603;SDS011;6367;52.508;13.284;2023-04-28T04:06:03;6.13;;;4.70;;
12603;SDS011;6367;52.508;13.284;2023-04-28T04:08:29;5.73;;;4.47;;
12603;SDS011;6367;52.508;13.284;2023-04-28T04:10:56;5.73;;;4.47;;
12603;SDS011;6367;52.508;13.284;2023-04-28T04:13:22;7.93;;;4.43;;
12603;SDS011;6367;52.508;13.284;2023-04-28T04:15:48;8.90;;;4.40;;
12603;SDS011;6367;52.508;13.284;2023-04-28T04:18:14;6.63;;;4.30;;
12603;SDS011;6367;52.508;13.284;2023-04-28T04:20:40;7.30;;;4.80;;
12603;SDS011;6367;52.508;13.284;2023-04-28T04:23:06;5.10;;;4.33;;
12603;SDS011;6367;52.508;13.284;2023-04-28T04:25:31;6.27;;;4.43;;
12603;SDS011;6367;52.508;13.284;2023-04-28T04:27:58;5.70;;;4.10;;
12603;SDS011;6367;52.508;13.284;2023-04-28T04:30:23;4.90;;;4.47;;
12603;SDS011;6367;52.508;13.284;2023-04-28T04:32:49;9.00;;;4.23;;
12603;SDS011;6367;52.508;13.284;2023-04-28T04:35:15;5.40;;;3.80;;
12603;SDS011;6367;52.508;13.284;2023-04-28T04:37:41;7.80;;;5.07;;
12603;SDS011;6367;52.508;13.284;2023-04-28T04:40:07;4.90;;;3.90;;
12603;SDS011;6367;52.508;13.284;2023-04-28T04:42:33;5.03;;;4.53;;
12603;SDS011;6367;52.508;13.284;2023-04-28T04:44:59;7.97;;;4.47;;
12603;SDS011;6367;52.508;13.284;2023-04-28T04:47:24;6.40;;;4.93;;
12603;SDS011;6367;52.508;13.284;2023-04-28T04:49:50;5.90;;;3.70;;
12603;SDS011;6367;52.508;13.284;2023-04-28T04:52:17;5.70;;;4.70;;
12603;SDS011;6367;52.508;13.284;2023-04-28T04:54:43;5.03;;;4.50;;
12603;SDS011;6367;52.508;13.284;2023-04-28T04:57:09;7.27;;;4.47;;
12603;SDS011;6367;52.508;13.284;2023-04-28T04:59:35;6.03;;;4.60;;
12603;SDS011;6367;52.508;13.284;2023-04-28T05:02:01;7.60;;;4.23;;
12603;SDS011;6367;52.508;13.284;2023-04-28T05:04:27;6.53;;;5.13;;
12603;SDS011;6367;52.508;13.284;2023-04-28T05:06:52;5.60;;;4.10;;
12603;SDS011;6367;52.508;13.284;2023-04-28T05:09:18;4.10;;;3.70;;
12603;SDS011;6367;52.508;13.284;2023-04-28T05:11:44;6.27;;;3.60;;
12603;SDS011;6367;52.508;13.284;2023-04-28T05:14:10;5.83;;;4.53;;
12603;SDS011;6367;52.508;13.284;2023-04-28T05:16:36;5.47;;;4.10;;
12603;SDS011;6367;52.508;13.284;2023-04-28T05:19:03;5.90;;;4.93;;
12603;SDS011;6367;52.508;13.284;2023-04-28T05:21:29;6.00;;;4.10;;
12603;SDS011;6367;52.508;13.284;2023-04-28T05:23:55;8.53;;;5.10;;
12603;SDS011;6367;52.508;13.284;2023-04-28T05:26:21;6.60;;;4.47;;
12603;SDS011;6367;52.508;13.284;2023-04-28T05:28:47;4.70;;;4.30;;
12603;SDS011;6367;52.508;13.284;2023-04-28T05:31:13;4.90;;;4.37;;
12603;SDS011;6367;52.508;13.284;2023-04-28T05:33:39;9.20;;;4.77;;
12603;SDS011;6367;52.508;13.284;2023-04-28T05:36:04;6.63;;;4.07;;
12603;SDS011;6367;52.508;13.284;2023-04-28T05:38:30;8.23;;;4.80;;
12603;SDS011;6367;52.508;13.284;2023-04-28T05:40:57;5.07;;;4.30;;
12603;SDS011;6367;52.508;13.284;2023-04-28T05:43:23;5.97;;;4.37;;
12603;SDS011;6367;52.508;13.284;2023-04-28T05:45:49;7.43;;;4.90;;
12603;SDS011;6367;52.508;13.284;2023-04-28T05:48:14;7.30;;;5.03;;
12603;SDS011;6367;52.508;13.284;2023-04-28T05:50:40;5.77;;;3.97;;
12603;SDS011;6367;52.508;13.284;2023-04-28T05:53:06;7.27;;;4.80;;
12603;SDS011;6367;52.508;13.284;2023-04-28T05:55:32;8.97;;;5.13;;
12603;SDS011;6367;52.508;13.284;2023-04-28T05:58:00;7.33;;;4.87;;
12603;SDS011;6367;52.508;13.284;2023-04-28T06:00:26;8.33;;;5.70;;
12603;SDS011;6367;52.508;13.284;2023-04-28T06:02:52;7.30;;;5.40;;
12603;SDS011;6367;52.508;13.284;2023-04-28T06:05:17;6.90;;;4.80;;
12603;SDS011;6367;52.508;13.284;2023-04-28T06:07:43;6.03;;;4.80;;
12603;SDS011;6367;52.508;13.284;2023-04-28T06:10:09;7.83;;;4.77;;
12603;SDS011;6367;52.508;13.284;2023-04-28T06:12:35;8.97;;;5.33;;
12603;SDS011;6367;52.508;13.284;2023-04-28T06:15:01;7.47;;;5.17;;
12603;SDS011;6367;52.508;13.284;2023-04-28T06:17:27;6.30;;;4.77;;
12603;SDS011;6367;52.508;13.284;2023-04-28T06:19:55;5.77;;;4.10;;
12603;SDS011;6367;52.508;13.284;2023-04-28T06:22:23;6.70;;;4.23;;
12603;SDS011;6367;52.508;13.284;2023-04-28T06:24:49;4.77;;;4.10;;
12603;SDS011;6367;52.508;13.284;2023-04-28T06:27:14;6.83;;;4.13;;
12603;SDS011;6367;52.508;13.284;2023-04-28T06:29:40;5.10;;;4.60;;
12603;SDS011;6367;52.508;13.284;2023-04-28T06:32:06;7.83;;;4.67;;
12603;SDS011;6367;52.508;13.284;2023-04-28T06:34:31;5.57;;;4.00;;
12603;SDS011;6367;52.508;13.284;2023-04-28T06:36:58;5.60;;;4.60;;
12603;SDS011;6367;52.508;13.284;2023-04-28T06:39:23;9.70;;;4.70;;
12603;SDS011;6367;52.508;13.284;2023-04-28T06:41:49;7.90;;;4.70;;
12603;SDS011;6367;52.508;13.284;2023-04-28T06:44:15;7.27;;;4.90;;
12603;SDS011;6367;52.508;13.284;2023-04-28T06:46:40;6.17;;;4.00;;
12603;SDS011;6367;52.508;13.284;2023-04-28T06:49:06;5.50;;;3.77;;
12603;SDS011;6367;52.508;13.284;2023-04-28T06:51:32;5.60;;;4.57;;
12603;SDS011;6367;52.508;13.284;2023-04-28T06:53:57;6.17;;;4.70;;
12603;SDS011;6367;52.508;13.284;2023-04-28T06:56:23;4.90;;;4.03;;
12603;SDS011;6367;52.508;13.284;2023-04-28T06:58:49;9.00;;;4.57;;
12603;SDS011;6367;52.508;13.284;2023-04-28T07:01:15;7.40;;;4.67;;
12603;SDS011;6367;52.508;13.284;2023-04-28T07:03:41;8.50;;;3.90;;
12603;SDS011;6367;52.508;13.284;2023-04-28T07:06:07;7.23;;;4.60;;
12603;SDS011;6367;52.508;13.284;2023-04-28T07:08:33;9.17;;;5.00;;
12603;SDS011;6367;52.508;13.284;2023-04-28T07:11:00;10.97;;;4.60;;
12603;SDS011;6367;52.508;13.284;2023-04-28T07:13:28;10.73;;;5.70;;
12603;SDS011;6367;52.508;13.284;2023-04-28T07:15:55;5.23;;;4.50;;
12603;SDS011;6367;52.508;13.284;2023-04-28T07:18:20;7.03;;;5.63;;
12603;SDS011;6367;52.508;13.284;2023-04-28T07:20:46;6.33;;;4.90;;
12603;SDS011;6367;52.508;13.284;2023-04-28T07:23:12;8.27;;;5.10;;
12603;SDS011;6367;52.508;13.284;2023-04-28T07:25:38;6.10;;;4.17;;
12603;SDS011;6367;52.508;13.284;2023-04-28T07:28:07;8.17;;;4.40;;
12603;SDS011;6367;52.508;13.284;2023-04-28T07:30:34;3.90;;;3.33;;
12603;SDS011;6367;52.508;13.284;2023-04-28T07:33:00;9.53;;;5.00;;
12603;SDS011;6367;52.508;13.284;2023-04-28T07:35:26;9.40;;;4.83;;
12603;SDS011;6367;52.508;13.284;2023-04-28T07:37:52;7.83;;;4.23;;
12603;SDS011;6367;52.508;13.284;2023-04-28T07:40:18;6.27;;;3.50;;
12603;SDS011;6367;52.508;13.284;2023-04-28T07:42:44;5.20;;;3.77;;
12603;SDS011;6367;52.508;13.284;2023-04-28T07:45:11;6.00;;;4.23;;
12603;SDS011;6367;52.508;13.284;2023-04-28T07:47:37;5.23;;;3.73;;
12603;SDS011;6367;52.508;13.284;2023-04-28T07:50:03;4.60;;;4.13;;
12603;SDS011;6367;52.508;13.284;2023-04-28T07:52:30;6.40;;;4.23;;
12603;SDS011;6367;52.508;13.284;2023-04-28T07:54:57;4.30;;;3.90;;
12603;SDS011;6367;52.508;13.284;2023-04-28T07:57:23;9.67;;;4.20;;
12603;SDS011;6367;52.508;13.284;2023-04-28T07:59:49;6.80;;;4.03;;
12603;SDS011;6367;52.508;13.284;2023-04-28T08:02:15;6.07;;;4.33;;
12603;SDS011;6367;52.508;13.284;2023-04-28T08:04:41;6.93;;;3.80;;
12603;SDS011;6367;52.508;13.284;2023-04-28T08:07:07;5.97;;;3.30;;
12603;SDS011;6367;52.508;13.284;2023-04-28T08:09:33;5.70;;;4.00;;
12603;SDS011;6367;52.508;13.284;2023-04-28T08:11:59;4.23;;;3.83;;
12603;SDS011;6367;52.508;13.284;2023-04-28T08:14:25;6.53;;;3.67;;
12603;SDS011;6367;52.508;13.284;2023-04-28T08:16:51;8.67;;;3.93;;
12603;SDS011;6367;52.508;13.284;2023-04-28T08:19:18;11.70;;;4.20;;
12603;SDS011;6367;52.508;13.284;2023-04-28T08:21:44;5.70;;;4.43;;
12603;SDS011;6367;52.508;13.284;2023-04-28T08:24:10;5.00;;;3.40;;
12603;SDS011;6367;52.508;13.284;2023-04-28T08:26:36;5.80;;;3.90;;
12603;SDS011;6367;52.508;13.284;2023-04-28T08:29:02;5.23;;;4.23;;
12603;SDS011;6367;52.508;13.284;2023-04-28T08:31:28;5.43;;;4.20;;
12603;SDS011;6367;52.508;13.284;2023-04-28T08:33:54;5.83;;;3.90;;
12603;SDS011;6367;52.508;13.284;2023-04-28T08:36:20;4.80;;;4.27;;
12603;SDS011;6367;52.508;13.284;2023-04-28T08:38:47;4.73;;;4.20;;
12603;SDS011;6367;52.508;13.284;2023-04-28T08:41:16;5.10;;;3.93;;
12603;SDS011;6367;52.508;13.284;2023-04-28T08:43:43;5.57;;;3.70;;
12603;SDS011;6367;52.508;13.284;2023-04-28T08:46:09;6.90;;;4.20;;
12603;SDS011;6367;52.508;13.284;2023-04-28T08:48:39;9.43;;;4.30;;
12603;SDS011;6367;52.508;13.284;2023-04-28T08:51:07;5.80;;;3.93;;
12603;SDS011;6367;52.508;13.284;2023-04-28T08:53:38;5.40;;;3.60;;
12603;SDS011;6367;52.508;13.284;2023-04-28T08:56:04;5.33;;;4.40;;
12603;SDS011;6367;52.508;13.284;2023-04-28T08:58:32;12.07;;;4.00;;
12603;SDS011;6367;52.508;13.284;2023-04-28T09:01:01;5.40;;;4.57;;
12603;SDS011;6367;52.508;13.284;2023-04-28T09:03:28;8.00;;;4.37;;
12603;SDS011;6367;52.508;13.284;2023-04-28T09:05:54;5.63;;;3.97;;
12603;SDS011;6367;52.508;13.284;2023-04-28T09:08:20;4.23;;;3.80;;
12603;SDS011;6367;52.508;13.284;2023-04-28T09:10:46;5.27;;;4.30;;
12603;SDS011;6367;52.508;13.284;2023-04-28T09:13:23;6.10;;;4.37;;
12603;SDS011;6367;52.508;13.284;2023-04-28T09:15:49;6.93;;;4.20;;
12603;SDS011;6367;52.508;13.284;2023-04-28T09:18:15;5.10;;;4.30;;
12603;SDS011;6367;52.508;13.284;2023-04-28T09:20:41;8.13;;;5.07;;
12603;SDS011;6367;52.508;13.284;2023-04-28T09:23:15;6.73;;;4.30;;
12603;SDS011;6367;52.508;13.284;2023-04-28T09:25:55;4.93;;;4.50;;
12603;SDS011;6367;52.508;13.284;2023-04-28T09:28:25;8.47;;;5.10;;
12603;SDS011;6367;52.508;13.284;2023-04-28T09:30:51;4.53;;;4.10;;
12603;SDS011;6367;52.508;13.284;2023-04-28T09:33:16;6.57;;;5.03;;
12603;SDS011;6367;52.508;13.284;2023-04-28T09:35:42;5.70;;;5.10;;
12603;SDS011;6367;52.508;13.284;2023-04-28T09:38:12;6.97;;;5.00;;
12603;SDS011;6367;52.508;13.284;2023-04-28T09:43:34;5.30;;;4.77;;
12603;SDS011;6367;52.508;13.284;2023-04-28T09:46:00;6.40;;;4.93;;
12603;SDS011;6367;52.508;13.284;2023-04-28T09:51:01;6.37;;;4.70;;
12603;SDS011;6367;52.508;13.284;2023-04-28T09:53:29;7.50;;;5.20;;
12603;SDS011;6367;52.508;13.284;2023-04-28T09:55:55;6.60;;;4.77;;
12603;SDS011;6367;52.508;13.284;2023-04-28T09:58:23;7.03;;;5.30;;
12603;SDS011;6367;52.508;13.284;2023-04-28T10:00:51;6.73;;;5.50;;
12603;SDS011;6367;52.508;13.284;2023-04-28T10:03:22;7.07;;;5.20;;
12603;SDS011;6367;52.508;13.284;2023-04-28T10:05:50;5.80;;;4.77;;
12603;SDS011;6367;52.508;13.284;2023-04-28T10:08:17;6.03;;;5.27;;
12603;SDS011;6367;52.508;13.284;2023-04-28T10:10:44;7.70;;;5.40;;
12603;SDS011;6367;52.508;13.284;2023-04-28T10:13:13;6.60;;;4.53;;
12603;SDS011;6367;52.508;13.284;2023-04-28T10:15:43;8.03;;;5.30;;
12603;SDS011;6367;52.508;13.284;2023-04-28T10:18:10;5.83;;;4.73;;
12603;SDS011;6367;52.508;13.284;2023-04-28T10:20:36;6.20;;;5.07;;
12603;SDS011;6367;52.508;13.284;2023-04-28T10:23:16;10.10;;;5.50;;
12603;SDS011;6367;52.508;13.284;2023-04-28T10:26:04;7.57;;;4.77;;
12603;SDS011;6367;52.508;13.284;2023-04-28T10:28:35;7.50;;;5.13;;
12603;SDS011;6367;52.508;13.284;2023-04-28T10:31:11;8.63;;;6.20;;
12603;SDS011;6367;52.508;13.284;2023-04-28T10:33:39;7.57;;;5.40;;
12603;SDS011;6367;52.508;13.284;2023-04-28T10:36:06;6.30;;;5.23;;
12603;SDS011;6367;52.508;13.284;2023-04-28T10:38:32;7.90;;;4.90;;
12603;SDS011;6367;52.508;13.284;2023-04-28T10:40:59;6.73;;;4.60;;
12603;SDS011;6367;52.508;13.284;2023-04-28T10:58:51;9.60;;;6.70;;
12603;SDS011;6367;52.508;13.284;2023-04-28T11:03:49;6.17;;;5.10;;
12603;SDS011;6367;52.508;13.284;2023-04-28T11:06:38;8.97;;;5.60;;
12603;SDS011;6367;52.508;13.284;2023-04-28T11:11:37;6.50;;;5.57;;
12603;SDS011;6367;52.508;13.284;2023-04-28T11:16:52;7.10;;;5.57;;
12603;SDS011;6367;52.508;13.284;2023-04-28T11:19:27;7.07;;;6.03;;
12603;SDS011;6367;52.508;13.284;2023-04-28T11:22:00;6.63;;;5.33;;
12603;SDS011;6367;52.508;13.284;2023-04-28T11:24:27;8.43;;;5.70;;
12603;SDS011;6367;52.508;13.284;2023-04-28T11:26:54;9.30;;;6.10;;
12603;SDS011;6367;52.508;13.284;2023-04-28T11:32:06;7.67;;;5.90;;
12603;SDS011;6367;52.508;13.284;2023-04-28T11:34:33;6.70;;;5.50;;
12603;SDS011;6367;52.508;13.284;2023-04-28T11:37:00;6.40;;;5.47;;
12603;SDS011;6367;52.508;13.284;2023-04-28T11:39:27;7.47;;;5.87;;
12603;SDS011;6367;52.508;13.284;2023-04-28T11:41:54;8.23;;;6.20;;
12603;SDS011;6367;52.508;13.284;2023-04-28T11:44:22;7.43;;;5.30;;
12603;SDS011;6367;52.508;13.284;2023-04-28T11:46:50;10.80;;;6.07;;
12603;SDS011;6367;52.508;13.284;2023-04-28T11:49:23;6.50;;;5.77;;
12603;SDS011;6367;52.508;13.284;2023-04-28T11:51:50;7.30;;;6.47;;
12603;SDS011;6367;52.508;13.284;2023-04-28T11:54:20;8.83;;;5.83;;
12603;SDS011;6367;52.508;13.284;2023-04-28T11:56:50;7.33;;;5.73;;
12603;SDS011;6367;52.508;13.284;2023-04-28T11:59:17;5.90;;;5.30;;
12603;SDS011;6367;52.508;13.284;2023-04-28T12:01:54;9.97;;;6.70;;
12603;SDS011;6367;52.508;13.284;2023-04-28T12:07:01;7.37;;;5.20;;
12603;SDS011;6367;52.508;13.284;2023-04-28T12:09:31;11.63;;;6.47;;
12603;SDS011;6367;52.508;13.284;2023-04-28T12:12:00;8.00;;;6.60;;
12603;SDS011;6367;52.508;13.284;2023-04-28T12:14:27;8.10;;;6.53;;
12603;SDS011;6367;52.508;13.284;2023-04-28T12:16:54;10.60;;;6.90;;
12603;SDS011;6367;52.508;13.284;2023-04-28T12:19:20;10.30;;;7.30;;
12603;SDS011;6367;52.508;13.284;2023-04-28T12:22:02;9.80;;;6.00;;
12603;SDS011;6367;52.508;13.284;2023-04-28T12:24:29;6.30;;;5.67;;
12603;SDS011;6367;52.508;13.284;2023-04-28T12:27:15;6.40;;;5.00;;
12603;SDS011;6367;52.508;13.284;2023-04-28T12:29:49;6.83;;;5.80;;
12603;SDS011;6367;52.508;13.284;2023-04-28T12:32:15;7.17;;;6.07;;
12603;SDS011;6367;52.508;13.284;2023-04-28T12:34:41;6.70;;;6.00;;
12603;SDS011;6367;52.508;13.284;2023-04-28T12:37:09;6.30;;;5.57;;
12603;SDS011;6367;52.508;13.284;2023-04-28T12:39:37;7.50;;;6.70;;
12603;SDS011;6367;52.508;13.284;2023-04-28T12:42:04;8.80;;;5.17;;
12603;SDS011;6367;52.508;13.284;2023-04-28T12:44:33;8.07;;;5.80;;
12603;SDS011;6367;52.508;13.284;2023-04-28T12:47:07;7.47;;;5.47;;
12603;SDS011;6367;52.508;13.284;2023-04-28T12:49:34;9.67;;;6.07;;
12603;SDS011;6367;52.508;13.284;2023-04-28T12:52:00;5.73;;;5.20;;
12603;SDS011;6367;52.508;13.284;2023-04-28T12:54:27;7.57;;;5.27;;
12603;SDS011;6367;52.508;13.284;2023-04-28T12:56:53;6.43;;;5.20;;
12603;SDS011;6367;52.508;13.284;2023-04-28T12:59:19;10.93;;;6.33;;
12603;SDS011;6367;52.508;13.284;2023-04-28T13:01:45;7.70;;;5.97;;
12603;SDS011;6367;52.508;13.284;2023-04-28T13:04:11;7.00;;;5.00;;
12603;SDS011;6367;52.508;13.284;2023-04-28T13:06:37;8.53;;;5.60;;
12603;SDS011;6367;52.508;13.284;2023-04-28T13:09:04;6.73;;;5.13;;
12603;SDS011;6367;52.508;13.284;2023-04-28T13:11:30;8.17;;;4.93;;
12603;SDS011;6367;52.508;13.284;2023-04-28T13:13:56;13.43;;;5.40;;
12603;SDS011;6367;52.508;13.284;2023-04-28T13:16:22;5.80;;;5.00;;
12603;SDS011;6367;52.508;13.284;2023-04-28T13:18:49;7.73;;;5.40;;
12603;SDS011;6367;52.508;13.284;2023-04-28T13:21:16;9.10;;;5.90;;
12603;SDS011;6367;52.508;13.284;2023-04-28T13:23:42;6.93;;;4.40;;
12603;SDS011;6367;52.508;13.284;2023-04-28T13:26:07;7.40;;;4.90;;
12603;SDS011;6367;52.508;13.284;2023-04-28T13:28:33;8.10;;;5.07;;
12603;SDS011;6367;52.508;13.284;2023-04-28T13:30:59;7.20;;;4.63;;
12603;SDS011;6367;52.508;13.284;2023-04-28T13:33:25;7.23;;;4.97;;
12603;SDS011;6367;52.508;13.284;2023-04-28T13:35:56;7.47;;;5.23;;
12603;SDS011;6367;52.508;13.284;2023-04-28T13:38:22;9.53;;;5.80;;
12603;SDS011;6367;52.508;13.284;2023-04-28T13:40:49;5.97;;;5.07;;
12603;SDS011;6367;52.508;13.284;2023-04-28T13:43:15;5.97;;;5.00;;
12603;SDS011;6367;52.508;13.284;2023-04-28T13:45:41;10.33;;;6.33;;
12603;SDS011;6367;52.508;13.284;2023-04-28T13:48:06;8.63;;;5.47;;
12603;SDS011;6367;52.508;13.284;2023-04-28T13:50:32;6.60;;;5.27;;
12603;SDS011;6367;52.508;13.284;2023-04-28T13:52:58;7.07;;;5.70;;
12603;SDS011;6367;52.508;13.284;2023-04-28T13:55:23;6.10;;;4.70;;
12603;SDS011;6367;52.508;13.284;2023-04-28T13:57:55;8.03;;;6.13;;
12603;SDS011;6367;52.508;13.284;2023-04-28T14:00:25;6.60;;;5.97;;
12603;SDS011;6367;52.508;13.284;2023-04-28T14:02:51;7.03;;;5.60;;
12603;SDS011;6367;52.508;13.284;2023-04-28T14:05:16;6.50;;;4.70;;
12603;SDS011;6367;52.508;13.284;2023-04-28T14:07:42;6.53;;;4.90;;
12603;SDS011;6367;52.508;13.284;2023-04-28T14:10:08;6.00;;;5.13;;
12603;SDS011;6367;52.508;13.284;2023-04-28T14:12:35;6.77;;;6.17;;
12603;SDS011;6367;52.508;13.284;2023-04-28T14:15:02;6.93;;;5.70;;
12603;SDS011;6367;52.508;13.284;2023-04-28T14:17:29;6.50;;;5.90;;
12603;SDS011;6367;52.508;13.284;2023-04-28T14:19:54;4.77;;;4.30;;
12603;SDS011;6367;52.508;13.284;2023-04-28T14:22:20;8.23;;;5.13;;
12603;SDS011;6367;52.508;13.284;2023-04-28T14:24:46;7.30;;;5.20;;
12603;SDS011;6367;52.508;13.284;2023-04-28T14:27:11;6.73;;;5.87;;
12603;SDS011;6367;52.508;13.284;2023-04-28T14:29:37;6.40;;;5.50;;
12603;SDS011;6367;52.508;13.284;2023-04-28T14:32:03;6.37;;;5.30;;
12603;SDS011;6367;52.508;13.284;2023-04-28T14:34:29;8.30;;;5.90;;
12603;SDS011;6367;52.508;13.284;2023-04-28T14:36:55;5.20;;;4.70;;
12603;SDS011;6367;52.508;13.284;2023-04-28T14:39:21;5.10;;;4.60;;
12603;SDS011;6367;52.508;13.284;2023-04-28T14:41:47;7.30;;;5.63;;
12603;SDS011;6367;52.508;13.284;2023-04-28T14:44:13;5.60;;;5.10;;
12603;SDS011;6367;52.508;13.284;2023-04-28T14:46:38;5.80;;;5.07;;
12603;SDS011;6367;52.508;13.284;2023-04-28T14:49:04;9.53;;;5.43;;
12603;SDS011;6367;52.508;13.284;2023-04-28T14:51:30;6.23;;;5.33;;
12603;SDS011;6367;52.508;13.284;2023-04-28T14:53:56;5.60;;;5.10;;
12603;SDS011;6367;52.508;13.284;2023-04-28T14:56:22;6.03;;;4.33;;
12603;SDS011;6367;52.508;13.284;2023-04-28T14:58:48;8.47;;;4.80;;
12603;SDS011;6367;52.508;13.284;2023-04-28T15:01:15;6.67;;;5.20;;
12603;SDS011;6367;52.508;13.284;2023-04-28T15:03:42;6.00;;;5.43;;
12603;SDS011;6367;52.508;13.284;2023-04-28T15:06:08;7.70;;;5.43;;
12603;SDS011;6367;52.508;13.284;2023-04-28T15:08:34;8.40;;;5.90;;
12603;SDS011;6367;52.508;13.284;2023-04-28T15:11:00;9.00;;;5.80;;
12603;SDS011;6367;52.508;13.284;2023-04-28T15:13:26;10.30;;;6.87;;
12603;SDS011;6367;52.508;13.284;2023-04-28T15:15:52;6.10;;;5.50;;
12603;SDS011;6367;52.508;13.284;2023-04-28T15:18:18;7.87;;;6.20;;